首页
METAR-TAF:

METAR-TAF

机场 :

石油平台 Norsk Hydro

Oseberg, 挪威

纬度: 60-29-29N, 经度: 2-49-32E, 海拔: 158米

当前天气观测

该预报发布于43分钟前的07:50 UTC
风速18节,风向西
温度 3°C
湿度 60%
气压 1040 hPa
能见度10公里或以上
少量云层高于4000英尺

METAR: ENOA 290750Z 28018KT 9999 FEW040 03/M04 Q1040 W///S5

时间: 10:33 (08:33 UTC)

预报

预报有效从29日的 06点(UTC)到 30日的 06点(UTC)
风速22节,风向
能见度10公里或以上
少量云层高于2000英尺, 塔状积云.
散云层高于4000英尺
短暂存在
从 29日的 06点(UTC)到 29日的 24点(UTC)
风速32节,风向北转西北,有时为42节阵风
短暂存在
从 29日的 06点(UTC)到 29日的 11点(UTC)
能見度: 2000
多云层高于1200英尺, 积雨云.
阵雪, 雨
短暂存在
从 29日的 11点(UTC)到 29日的 24点(UTC)
多云层高于1400英尺, 积雨云.
阵雨

TAF: ENOA 2906/3006 35022KT 9999 FEW020TCU SCT040 TEMPO 2906/2924 33032G42KT TEMPO 2906/2911 2000 SHSNRA BKN012CB TEMPO 2911/2924 SHRA BKN014CB

超过4000个机场的气象观测和天气预报(METAR&TAF报告)。

可查询的气象台以黄色和红色小点在地图上表示。

将鼠标移到小点上方,可查看气象台名称。

然后点击查看天气观测和预报。

如需切换地图:点击带黑十字的绿色按钮放大地图;点击带横线的绿色按钮缩小地图;或者点击绿色箭头查看邻近地区的地图。


METAR-TAF: